createdAt,value
2023-09-27T00:00:15.105Z,17.89
2023-09-27T00:02:45.243Z,17.87
2023-09-27T00:05:18.201Z,17.83
2023-09-27T00:07:46.815Z,17.80
2023-09-27T00:10:16.134Z,17.78
2023-09-27T00:12:46.515Z,17.76
2023-09-27T00:15:15.434Z,17.73
2023-09-27T00:17:45.258Z,17.71
2023-09-27T00:20:17.262Z,17.67
2023-09-27T00:22:46.401Z,17.63
2023-09-27T00:25:15.702Z,17.59
2023-09-27T00:27:51.172Z,17.58
2023-09-27T00:30:19.515Z,17.56
2023-09-27T00:32:47.982Z,17.54
2023-09-27T00:35:20.697Z,17.52
2023-09-27T00:37:50.103Z,17.50
2023-09-27T00:40:19.661Z,17.49
2023-09-27T00:42:49.768Z,17.45
2023-09-27T00:45:22.206Z,17.42
2023-09-27T00:47:52.822Z,17.39
2023-09-27T00:50:22.014Z,17.36
2023-09-27T00:52:51.295Z,17.32
2023-09-27T00:55:22.172Z,17.30
2023-09-27T00:57:55.379Z,17.28
2023-09-27T01:00:24.895Z,17.27
2023-09-27T01:02:56.982Z,17.24
2023-09-27T01:05:25.963Z,17.19
2023-09-27T01:07:54.461Z,17.17
2023-09-27T01:10:28.287Z,17.15
2023-09-27T01:12:58.467Z,17.10
2023-09-27T01:15:27.046Z,17.08
2023-09-27T01:17:56.320Z,17.08
2023-09-27T01:20:24.969Z,17.04
2023-09-27T01:22:59.320Z,17.01
2023-09-27T01:25:30.970Z,16.99
2023-09-27T01:28:00.377Z,16.97
2023-09-27T01:30:34.244Z,16.93
2023-09-27T01:33:08.709Z,16.90
2023-09-27T01:35:38.568Z,16.86
2023-09-27T01:38:10.492Z,16.83
2023-09-27T01:40:41.314Z,16.81
2023-09-27T01:43:09.978Z,16.78
2023-09-27T01:45:38.452Z,16.77
2023-09-27T01:48:08.164Z,16.74
2023-09-27T01:50:38.966Z,16.74
2023-09-27T01:53:08.693Z,16.73
2023-09-27T01:55:37.144Z,16.72
2023-09-27T01:58:06.361Z,16.69
2023-09-27T02:00:35.086Z,16.66
2023-09-27T02:03:05.057Z,16.62
2023-09-27T02:05:33.961Z,16.61
2023-09-27T02:08:02.412Z,16.59
2023-09-27T02:10:32.256Z,16.57
2023-09-27T02:13:03.644Z,16.54
2023-09-27T02:15:32.197Z,16.53
2023-09-27T02:18:00.651Z,16.51
2023-09-27T02:20:31.175Z,16.50
2023-09-27T02:22:59.748Z,16.48
2023-09-27T02:25:28.650Z,16.46
2023-09-27T02:27:58.391Z,16.44
2023-09-27T02:30:26.729Z,16.40
2023-09-27T02:32:55.047Z,16.40
2023-09-27T02:35:23.719Z,16.37
2023-09-27T02:37:52.098Z,16.35
2023-09-27T02:40:23.300Z,16.32
2023-09-27T02:42:54.566Z,16.29
2023-09-27T02:45:24.257Z,16.28
2023-09-27T02:47:52.589Z,16.27
2023-09-27T02:50:21.004Z,16.26
2023-09-27T02:52:49.368Z,16.24
2023-09-27T02:55:18.520Z,16.22
2023-09-27T02:57:54.266Z,16.20
2023-09-27T03:00:26.051Z,16.18
2023-09-27T03:02:54.407Z,16.17
2023-09-27T03:05:22.849Z,16.16
2023-09-27T03:07:51.230Z,16.14
2023-09-27T03:10:19.959Z,16.13
2023-09-27T03:12:50.456Z,16.11
2023-09-27T03:15:18.999Z,16.09
2023-09-27T03:17:50.382Z,16.06
2023-09-27T03:20:20.890Z,16.05
2023-09-27T03:22:50.648Z,16.04
2023-09-27T03:25:19.536Z,16.04
2023-09-27T03:27:48.926Z,16.04
2023-09-27T03:30:19.239Z,16.04
2023-09-27T03:32:49.243Z,16.02
2023-09-27T03:35:18.304Z,16.02
2023-09-27T03:37:50.003Z,15.99
2023-09-27T03:40:18.479Z,16.00
2023-09-27T03:42:50.075Z,15.99
2023-09-27T03:45:21.720Z,15.98
2023-09-27T03:47:51.618Z,15.95
2023-09-27T03:50:20.431Z,15.94
2023-09-27T03:52:49.284Z,15.94
2023-09-27T03:55:19.513Z,15.93
2023-09-27T03:57:47.878Z,15.92
2023-09-27T04:00:18.939Z,15.90
2023-09-27T04:02:47.772Z,15.90
2023-09-27T04:05:20.091Z,15.88
2023-09-27T04:07:48.546Z,15.85
2023-09-27T04:10:20.684Z,15.84
2023-09-27T04:12:49.690Z,15.81
2023-09-27T04:15:18.446Z,15.80
2023-09-27T04:17:46.889Z,15.80
2023-09-27T04:20:20.248Z,15.79
2023-09-27T04:22:54.102Z,15.80
2023-09-27T04:25:22.570Z,15.78
2023-09-27T04:27:52.356Z,15.78
2023-09-27T04:30:26.650Z,15.78
2023-09-27T04:32:58.004Z,15.77
2023-09-27T04:35:27.824Z,15.73
2023-09-27T04:37:56.223Z,15.73
2023-09-27T04:40:24.759Z,15.73
2023-09-27T04:42:53.045Z,15.73
2023-09-27T04:45:21.415Z,15.72
2023-09-27T04:47:51.076Z,15.69
2023-09-27T04:50:19.655Z,15.69
2023-09-27T04:52:49.440Z,15.68
2023-09-27T04:55:17.875Z,15.69
2023-09-27T04:57:46.531Z,15.67
2023-09-27T05:00:21.242Z,15.68
2023-09-27T05:02:50.443Z,15.68
2023-09-27T05:05:19.122Z,15.69
2023-09-27T05:07:49.349Z,15.70
2023-09-27T05:10:18.102Z,15.70
2023-09-27T05:12:46.454Z,15.71
2023-09-27T05:15:14.851Z,15.71
2023-09-27T05:17:43.202Z,15.71
2023-09-27T05:20:18.169Z,15.71
2023-09-27T05:22:47.949Z,15.71
2023-09-27T05:25:16.349Z,15.72
2023-09-27T05:27:44.687Z,15.73
2023-09-27T05:30:13.725Z,15.76
2023-09-27T05:32:44.288Z,15.77
2023-09-27T05:35:15.728Z,15.78
2023-09-27T05:37:44.410Z,15.81
2023-09-27T05:40:17.585Z,15.83
2023-09-27T05:42:45.942Z,15.85
2023-09-27T05:45:14.784Z,15.87
2023-09-27T05:47:43.752Z,15.88
2023-09-27T05:50:17.992Z,15.90
2023-09-27T05:52:47.939Z,15.90
2023-09-27T05:55:17.800Z,15.91
2023-09-27T05:57:46.569Z,15.93
2023-09-27T06:00:23.555Z,15.93
2023-09-27T06:02:52.320Z,15.93
2023-09-27T06:05:21.700Z,15.94
2023-09-27T06:07:50.391Z,15.96
2023-09-27T06:10:20.557Z,15.98
2023-09-27T06:12:54.798Z,16.02
2023-09-27T06:15:23.389Z,16.03
2023-09-27T06:17:51.784Z,16.08
2023-09-27T06:20:23.851Z,16.10
2023-09-27T06:22:54.652Z,16.11
2023-09-27T06:25:30.230Z,16.13
2023-09-27T06:27:58.720Z,16.15
2023-09-27T06:30:27.096Z,16.20
2023-09-27T06:32:55.782Z,16.23
2023-09-27T06:35:24.284Z,16.26
2023-09-27T06:38:01.570Z,16.28
2023-09-27T06:40:31.499Z,16.32
2023-09-27T06:43:00.635Z,16.34
2023-09-27T06:45:29.924Z,16.39
2023-09-27T06:48:00.056Z,16.42
2023-09-27T06:50:28.740Z,16.46
2023-09-27T06:53:19.834Z,16.49
2023-09-27T06:55:54.809Z,16.54
2023-09-27T06:58:26.157Z,16.60
2023-09-27T07:00:56.036Z,16.63
2023-09-27T07:03:26.845Z,16.70
2023-09-27T07:05:55.770Z,16.77
2023-09-27T07:08:24.281Z,16.87
2023-09-27T07:10:54.124Z,16.95
2023-09-27T07:13:26.301Z,17.07
2023-09-27T07:15:55.614Z,17.18
2023-09-27T07:18:27.014Z,17.30
2023-09-27T07:20:55.592Z,17.41
2023-09-27T07:23:31.169Z,17.53
2023-09-27T07:26:01.082Z,17.64
2023-09-27T07:28:32.486Z,17.79
2023-09-27T07:31:01.049Z,17.93
2023-09-27T07:33:38.150Z,18.07
2023-09-27T07:36:09.850Z,18.26
2023-09-27T07:38:43.916Z,18.41
2023-09-27T07:41:13.626Z,18.58
2023-09-27T07:43:42.971Z,18.78
2023-09-27T07:46:13.607Z,18.99
2023-09-27T07:48:43.738Z,19.19
2023-09-27T07:51:15.336Z,19.39
2023-09-27T07:53:46.371Z,19.57
2023-09-27T07:56:22.715Z,19.77
2023-09-27T07:58:53.843Z,19.96
2023-09-27T08:01:23.088Z,20.17
2023-09-27T08:03:54.995Z,20.37
2023-09-27T08:06:24.431Z,20.55
2023-09-27T08:08:55.807Z,20.73
2023-09-27T08:11:25.626Z,20.90
2023-09-27T08:13:54.920Z,21.08
2023-09-27T08:16:23.359Z,21.25
2023-09-27T08:18:51.991Z,21.42
2023-09-27T08:21:20.551Z,21.59
2023-09-27T08:23:54.021Z,21.76
2023-09-27T08:26:22.983Z,21.91
2023-09-27T08:28:53.227Z,22.03
2023-09-27T08:31:21.760Z,22.17
2023-09-27T08:33:50.107Z,22.29
2023-09-27T08:36:18.376Z,22.44
2023-09-27T08:38:46.708Z,22.58
2023-09-27T08:41:16.548Z,22.72
2023-09-27T08:43:48.745Z,22.85
2023-09-27T08:46:29.369Z,23.00
2023-09-27T08:48:59.198Z,23.15
2023-09-27T08:51:28.445Z,23.30
2023-09-27T08:53:56.882Z,23.47
2023-09-27T08:56:30.702Z,23.66
2023-09-27T08:58:59.956Z,23.83
2023-09-27T09:01:29.666Z,24.00
2023-09-27T09:04:01.128Z,24.16
2023-09-27T09:06:30.601Z,24.33
2023-09-27T09:09:01.487Z,24.50
2023-09-27T09:11:30.164Z,24.67
2023-09-27T09:14:04.874Z,24.80
2023-09-27T09:16:41.430Z,24.97
2023-09-27T09:19:41.099Z,25.13
2023-09-27T09:22:14.537Z,25.28
2023-09-27T09:24:45.005Z,25.45
2023-09-27T09:27:17.256Z,25.63
2023-09-27T09:29:50.685Z,25.80
2023-09-27T09:32:24.424Z,25.95
2023-09-27T09:34:56.451Z,26.14
2023-09-27T09:37:28.184Z,26.27
2023-09-27T09:40:14.273Z,26.45
2023-09-27T09:42:44.228Z,26.61
2023-09-27T09:45:13.732Z,26.76
2023-09-27T09:47:45.902Z,26.87
2023-09-27T09:50:18.069Z,27.03
2023-09-27T09:52:57.032Z,27.21
2023-09-27T09:55:48.887Z,27.38
2023-09-27T09:58:27.893Z,27.54
2023-09-27T10:01:03.594Z,27.69
2023-09-27T10:03:35.445Z,27.82
2023-09-27T10:06:06.567Z,27.95
2023-09-27T10:08:41.234Z,28.07
2023-09-27T10:11:13.544Z,28.20
2023-09-27T10:13:45.818Z,28.33
2023-09-27T10:16:16.024Z,28.43
2023-09-27T10:18:45.943Z,28.54
2023-09-27T10:21:15.926Z,28.68
2023-09-27T10:24:02.975Z,28.81
2023-09-27T10:26:38.778Z,28.95
2023-09-27T10:29:13.728Z,29.05
2023-09-27T10:32:21.920Z,29.14
2023-09-27T10:34:54.077Z,29.24
2023-09-27T10:37:59.859Z,29.34
2023-09-27T10:40:43.376Z,29.42
2023-09-27T10:43:14.578Z,29.48
2023-09-27T10:45:43.938Z,29.56
2023-09-27T10:48:20.641Z,29.64
2023-09-27T10:50:56.035Z,29.71
2023-09-27T10:53:24.399Z,29.77
2023-09-27T10:55:52.889Z,29.79
2023-09-27T10:58:24.180Z,29.84
2023-09-27T11:00:58.202Z,29.87
2023-09-27T11:03:26.894Z,29.95
2023-09-27T11:05:56.666Z,30.01
2023-09-27T11:08:33.092Z,30.08
2023-09-27T11:11:02.160Z,30.15
2023-09-27T11:13:30.925Z,30.23
2023-09-27T11:16:10.166Z,30.31
2023-09-27T11:18:47.648Z,30.34
2023-09-27T11:21:18.547Z,30.32
2023-09-27T11:23:57.701Z,30.31
2023-09-27T11:26:28.040Z,30.31
2023-09-27T11:29:01.206Z,30.30
2023-09-27T11:31:32.925Z,30.35
2023-09-27T11:34:16.220Z,30.36
2023-09-27T11:36:48.482Z,30.37
2023-09-27T11:39:30.924Z,30.39
2023-09-27T11:42:00.948Z,30.41
2023-09-27T11:44:33.065Z,30.39
2023-09-27T11:47:10.084Z,30.38
2023-09-27T11:49:51.949Z,30.36
2023-09-27T11:52:21.654Z,30.32
2023-09-27T11:54:49.946Z,30.32
2023-09-27T11:57:18.210Z,30.35
2023-09-27T11:59:49.596Z,30.41
2023-09-27T12:02:28.312Z,30.45
2023-09-27T12:05:02.057Z,30.51
2023-09-27T12:07:32.107Z,30.58
2023-09-27T12:10:00.699Z,30.63
2023-09-27T12:12:29.713Z,30.61
2023-09-27T12:14:58.127Z,30.65
2023-09-27T12:17:26.497Z,30.67
2023-09-27T12:20:00.553Z,30.69
2023-09-27T12:22:30.377Z,30.70
2023-09-27T12:25:02.395Z,30.64
2023-09-27T12:27:30.689Z,30.66
2023-09-27T12:30:07.434Z,30.67
2023-09-27T12:32:35.958Z,30.68
2023-09-27T12:35:04.849Z,30.64
2023-09-27T12:37:36.595Z,30.60
2023-09-27T12:40:13.721Z,30.63
2023-09-27T12:42:42.122Z,30.60
2023-09-27T12:45:12.603Z,30.58
2023-09-27T12:47:42.898Z,30.56
2023-09-27T12:50:14.512Z,30.59
2023-09-27T12:52:45.527Z,30.59
2023-09-27T12:55:15.595Z,30.61
2023-09-27T12:57:44.009Z,30.63
2023-09-27T13:00:25.414Z,30.65
2023-09-27T13:02:56.628Z,30.63
2023-09-27T13:05:25.464Z,30.62
2023-09-27T13:07:59.449Z,30.59
2023-09-27T13:10:29.262Z,30.54
2023-09-27T13:12:57.644Z,30.52
2023-09-27T13:15:25.919Z,30.50
2023-09-27T13:17:57.876Z,30.50
2023-09-27T13:20:26.228Z,30.50
2023-09-27T13:22:54.591Z,30.54
2023-09-27T13:25:23.205Z,30.57
2023-09-27T13:27:55.893Z,30.58
2023-09-27T13:30:35.334Z,30.63
2023-09-27T13:33:05.311Z,30.62
2023-09-27T13:35:36.706Z,30.54
2023-09-27T13:38:07.610Z,30.51
2023-09-27T13:40:36.339Z,30.50
2023-09-27T13:43:16.025Z,30.48
2023-09-27T13:45:47.416Z,30.48
2023-09-27T13:48:16.796Z,30.47
2023-09-27T13:50:45.318Z,30.46
2023-09-27T13:53:30.928Z,30.43
2023-09-27T13:55:59.362Z,30.39
2023-09-27T13:58:29.184Z,30.37
2023-09-27T14:00:57.550Z,30.35
2023-09-27T14:03:32.142Z,30.29
2023-09-27T14:06:00.541Z,30.27
2023-09-27T14:08:29.456Z,30.24
2023-09-27T14:10:58.201Z,30.22
2023-09-27T14:13:27.889Z,30.17
2023-09-27T14:15:56.183Z,30.11
2023-09-27T14:18:27.471Z,30.07
2023-09-27T14:20:55.950Z,29.98
2023-09-27T14:23:27.700Z,29.90
2023-09-27T14:25:56.100Z,29.82
2023-09-27T14:28:25.422Z,29.77
2023-09-27T14:30:55.219Z,29.69
2023-09-27T14:33:28.393Z,29.62
2023-09-27T14:35:57.703Z,29.56
2023-09-27T14:38:27.377Z,29.46
2023-09-27T14:40:55.732Z,29.40
2023-09-27T14:43:26.676Z,29.33
2023-09-27T14:45:59.518Z,29.25
2023-09-27T14:48:27.956Z,29.17
2023-09-27T14:50:56.248Z,29.11
2023-09-27T14:53:27.475Z,29.03
2023-09-27T14:55:58.953Z,28.96
2023-09-27T14:58:27.751Z,28.85
2023-09-27T15:00:57.515Z,28.76
2023-09-27T15:03:29.512Z,28.67
2023-09-27T15:06:02.115Z,28.58
2023-09-27T15:08:31.419Z,28.50
2023-09-27T15:10:59.911Z,28.40
2023-09-27T15:13:37.616Z,28.31
2023-09-27T15:16:07.362Z,28.23
2023-09-27T15:18:35.691Z,28.14
2023-09-27T15:21:04.020Z,28.05
2023-09-27T15:23:32.330Z,27.97
2023-09-27T15:26:00.948Z,27.91
2023-09-27T15:28:35.093Z,27.85
2023-09-27T15:31:04.250Z,27.78
2023-09-27T15:33:34.165Z,27.71
2023-09-27T15:36:06.159Z,27.65
2023-09-27T15:38:34.875Z,27.59
2023-09-27T15:41:05.321Z,27.53
2023-09-27T15:43:33.798Z,27.47
2023-09-27T15:46:04.751Z,27.42
2023-09-27T15:48:37.335Z,27.36
2023-09-27T15:51:12.850Z,27.27
2023-09-27T15:53:42.359Z,27.24
2023-09-27T15:56:11.899Z,27.17
2023-09-27T15:58:40.674Z,27.12
2023-09-27T16:01:09.520Z,27.03
2023-09-27T16:03:42.160Z,26.96
2023-09-27T16:06:10.605Z,26.88
2023-09-27T16:08:39.012Z,26.82
2023-09-27T16:11:07.333Z,26.76
2023-09-27T16:13:35.779Z,26.70
2023-09-27T16:16:05.162Z,26.63
2023-09-27T16:18:33.541Z,26.56
2023-09-27T16:21:03.360Z,26.51
2023-09-27T16:23:32.079Z,26.45
2023-09-27T16:26:00.748Z,26.38
2023-09-27T16:28:29.848Z,26.31
2023-09-27T16:30:59.828Z,26.26
2023-09-27T16:33:30.359Z,26.20
2023-09-27T16:35:58.701Z,26.13
2023-09-27T16:38:28.473Z,26.07
2023-09-27T16:40:56.816Z,26.01
2023-09-27T16:43:27.913Z,25.93
2023-09-27T16:45:56.323Z,25.89
2023-09-27T16:48:24.933Z,25.81
2023-09-27T16:50:53.256Z,25.73
2023-09-27T16:53:21.723Z,25.65
2023-09-27T16:55:54.517Z,25.56
2023-09-27T16:58:23.277Z,25.48
2023-09-27T17:00:51.644Z,25.39
2023-09-27T17:03:27.884Z,25.30
2023-09-27T17:05:56.684Z,25.21
2023-09-27T17:08:25.115Z,25.13
2023-09-27T17:10:57.674Z,25.03
2023-09-27T17:13:26.065Z,24.96
2023-09-27T17:15:54.567Z,24.87
2023-09-27T17:18:27.390Z,24.80
2023-09-27T17:20:55.723Z,24.72
2023-09-27T17:23:24.580Z,24.64
2023-09-27T17:25:55.576Z,24.57
2023-09-27T17:28:26.523Z,24.49
2023-09-27T17:30:57.834Z,24.40
2023-09-27T17:33:26.512Z,24.32
2023-09-27T17:35:55.194Z,24.25
2023-09-27T17:38:23.608Z,24.18
2023-09-27T17:40:52.100Z,24.11
2023-09-27T17:43:22.677Z,24.02
2023-09-27T17:45:54.032Z,23.95
2023-09-27T17:48:23.117Z,23.89
2023-09-27T17:50:51.464Z,23.82
2023-09-27T17:53:20.052Z,23.74
2023-09-27T17:55:48.473Z,23.68
2023-09-27T17:58:16.882Z,23.61
2023-09-27T18:00:46.620Z,23.55
2023-09-27T18:03:15.088Z,23.46
2023-09-27T18:05:43.555Z,23.38
2023-09-27T18:08:11.942Z,23.30
2023-09-27T18:10:40.397Z,23.23
2023-09-27T18:13:08.864Z,23.18
2023-09-27T18:15:38.119Z,23.11
2023-09-27T18:18:10.401Z,23.03
2023-09-27T18:20:39.477Z,22.98
2023-09-27T18:23:14.881Z,22.93
2023-09-27T18:25:43.373Z,22.86
2023-09-27T18:28:14.386Z,22.80
2023-09-27T18:30:43.225Z,22.75
2023-09-27T18:33:16.103Z,22.68
2023-09-27T18:35:44.439Z,22.64
2023-09-27T18:38:12.856Z,22.58
2023-09-27T18:40:41.708Z,22.54
2023-09-27T18:43:10.010Z,22.46
2023-09-27T18:45:38.494Z,22.41
2023-09-27T18:48:09.668Z,22.35
2023-09-27T18:50:41.791Z,22.27
2023-09-27T18:53:12.993Z,22.22
2023-09-27T18:55:41.433Z,22.13
2023-09-27T18:58:14.107Z,22.08
2023-09-27T19:00:42.809Z,22.01
2023-09-27T19:03:19.921Z,21.93
2023-09-27T19:05:49.867Z,21.88
2023-09-27T19:08:18.289Z,21.83
2023-09-27T19:10:48.003Z,21.78
2023-09-27T19:13:16.504Z,21.71
2023-09-27T19:15:45.563Z,21.65
2023-09-27T19:18:20.042Z,21.59
2023-09-27T19:20:49.782Z,21.52
2023-09-27T19:23:22.835Z,21.47
2023-09-27T19:25:51.335Z,21.44
2023-09-27T19:28:26.955Z,21.36
2023-09-27T19:30:55.339Z,21.32
2023-09-27T19:33:23.652Z,21.24
2023-09-27T19:35:53.421Z,21.18
2023-09-27T19:38:21.765Z,21.14
2023-09-27T19:40:50.163Z,21.11
2023-09-27T19:43:20.310Z,21.04
2023-09-27T19:45:48.722Z,20.99
2023-09-27T19:48:17.250Z,20.94
2023-09-27T19:50:46.186Z,20.87
2023-09-27T19:53:21.739Z,20.83
2023-09-27T19:55:50.154Z,20.78
2023-09-27T19:58:19.382Z,20.71
2023-09-27T20:00:47.931Z,20.66
2023-09-27T20:03:16.369Z,20.62
2023-09-27T20:05:44.749Z,20.57
2023-09-27T20:08:17.697Z,20.52
2023-09-27T20:10:46.081Z,20.46
2023-09-27T20:13:14.486Z,20.42
2023-09-27T20:15:43.419Z,20.38
2023-09-27T20:18:18.244Z,20.34
2023-09-27T20:20:47.650Z,20.31
2023-09-27T20:23:18.514Z,20.26
2023-09-27T20:25:48.185Z,20.24
2023-09-27T20:28:19.730Z,20.20
2023-09-27T20:30:50.408Z,20.16
2023-09-27T20:33:18.928Z,20.12
2023-09-27T20:35:47.341Z,20.09
2023-09-27T20:38:22.058Z,20.06
2023-09-27T20:40:50.434Z,20.03
2023-09-27T20:43:27.345Z,20.00
2023-09-27T20:45:55.818Z,19.97
2023-09-27T20:48:24.311Z,19.96
2023-09-27T20:50:57.993Z,19.92
2023-09-27T20:53:26.790Z,19.89
2023-09-27T20:55:55.188Z,19.87
2023-09-27T20:58:24.701Z,19.86
2023-09-27T21:00:53.783Z,19.84
2023-09-27T21:03:22.262Z,19.81
2023-09-27T21:05:50.656Z,19.77
2023-09-27T21:08:19.334Z,19.73
2023-09-27T21:10:50.398Z,19.71
2023-09-27T21:13:19.601Z,19.68
2023-09-27T21:15:48.128Z,19.65
2023-09-27T21:18:21.466Z,19.61
2023-09-27T21:20:49.764Z,19.55
2023-09-27T21:23:18.099Z,19.52
2023-09-27T21:25:46.478Z,19.47
2023-09-27T21:28:16.165Z,19.44
2023-09-27T21:30:44.587Z,19.38
2023-09-27T21:33:15.880Z,19.35
2023-09-27T21:35:44.484Z,19.32
2023-09-27T21:38:18.744Z,19.27
2023-09-27T21:40:51.163Z,19.22
2023-09-27T21:43:21.138Z,19.17
2023-09-27T21:45:49.535Z,19.13
2023-09-27T21:48:18.060Z,19.10
2023-09-27T21:50:47.832Z,19.06
2023-09-27T21:53:16.284Z,19.03
2023-09-27T21:55:44.665Z,18.99
2023-09-27T21:58:18.490Z,18.94
2023-09-27T22:00:48.440Z,18.91
2023-09-27T22:03:20.595Z,18.88
2023-09-27T22:05:52.025Z,18.83
2023-09-27T22:08:24.065Z,18.78
2023-09-27T22:10:54.340Z,18.76
2023-09-27T22:13:23.684Z,18.73
2023-09-27T22:15:59.603Z,18.70
2023-09-27T22:18:29.419Z,18.68
2023-09-27T22:20:57.733Z,18.61
2023-09-27T22:23:33.590Z,18.58
2023-09-27T22:26:06.549Z,18.52
2023-09-27T22:28:36.132Z,18.48
2023-09-27T22:31:13.785Z,18.47
2023-09-27T22:33:43.109Z,18.46
2023-09-27T22:36:12.950Z,18.42
2023-09-27T22:38:41.717Z,18.39
2023-09-27T22:41:16.084Z,18.36
2023-09-27T22:43:45.028Z,18.33
2023-09-27T22:46:14.787Z,18.30
2023-09-27T22:48:43.133Z,18.26
2023-09-27T22:51:20.298Z,18.24
2023-09-27T22:53:47.754Z,18.19
2023-09-27T22:56:16.184Z,18.16
2023-09-27T22:58:45.712Z,18.13
2023-09-27T23:01:28.984Z,18.09
2023-09-27T23:03:59.446Z,18.06
2023-09-27T23:06:33.515Z,18.02
2023-09-27T23:09:02.100Z,17.98
2023-09-27T23:11:30.742Z,17.95
2023-09-27T23:14:06.290Z,17.91
2023-09-27T23:16:46.189Z,17.87
2023-09-27T23:19:17.311Z,17.83
2023-09-27T23:21:46.401Z,17.79
2023-09-27T23:24:28.757Z,17.77
2023-09-27T23:27:06.412Z,17.74
2023-09-27T23:29:37.233Z,17.69
2023-09-27T23:32:23.550Z,17.65
2023-09-27T23:34:54.714Z,17.62
2023-09-27T23:37:32.025Z,17.60
2023-09-27T23:40:01.190Z,17.58
2023-09-27T23:42:35.622Z,17.54
2023-09-27T23:45:10.518Z,17.52
2023-09-27T23:47:47.487Z,17.48
2023-09-27T23:50:17.086Z,17.45
2023-09-27T23:52:47.853Z,17.41
2023-09-27T23:55:18.239Z,17.41
2023-09-27T23:57:48.781Z,17.39
